Time;durP1;ratioP1;P1;durP2;ratioP2;P2;SDS_P1;SDS_P2;PMS_P1;PMS_P2;Temp;Humidity;BMP_temperature;BMP_pressure;BME280_temperature;BME280_humidity;BME280_pressure;Samples;Min_cycle;Max_cycle;Signal;HPM_P1;HPM_P2
2022/07/31 00:00:46;;;;;;;11.93;10.53;;;;;;;20.68;100.00;63015.56;5072787;28;20275;-77
2022/07/31 00:03:14;;;;;;;10.73;9.63;;;;;;;20.60;100.00;63006.91;5071295;28;20254;-77
2022/07/31 00:05:41;;;;;;;10.93;9.77;;;;;;;20.66;100.00;63010.28;5071964;28;20220;-76
2022/07/31 00:08:08;;;;;;;10.87;9.77;;;;;;;20.66;100.00;63010.28;5074207;28;20207;-76
2022/07/31 00:10:35;;;;;;;10.53;8.97;;;;;;;20.19;100.00;62959.97;5092080;28;20196;-76
2022/07/31 00:13:02;;;;;;;11.80;9.70;;;;;;;20.64;100.00;63008.66;5076377;28;20201;-77
2022/07/31 00:15:29;;;;;;;12.40;9.93;;;;;;;20.06;100.00;62945.91;5071998;28;20283;-77
2022/07/31 00:17:58;;;;;;;10.93;9.83;;;;;;;20.47;100.00;62994.88;5071841;28;20200;-77
2022/07/31 00:20:25;;;;;;;11.73;10.50;;;;;;;20.67;100.00;63014.47;5081637;28;20196;-77
2022/07/31 00:22:53;;;;;;;11.70;10.50;;;;;;;20.15;100.00;62956.19;5088221;28;20212;-78
2022/07/31 00:25:20;;;;;;;12.40;11.10;;;;;;;20.15;100.00;62955.63;5071927;28;20601;-76
2022/07/31 00:27:47;;;;;;;12.23;10.93;;;;;;;20.31;100.00;62972.94;5071709;28;20207;-76
2022/07/31 00:30:16;;;;;;;13.30;11.17;;;;;;;19.78;100.00;62918.22;5071922;28;20224;-78
2022/07/31 00:32:43;;;;;;;16.63;12.90;;;;;;;20.68;100.00;63012.44;5072013;28;20254;-77
2022/07/31 00:35:14;;;;;;;14.30;11.70;;;;;;;20.71;100.00;63016.22;5071977;28;20261;-77
2022/07/31 00:37:41;;;;;;;13.20;11.27;;;;;;;20.67;100.00;63013.94;5071826;28;20258;-76
2022/07/31 00:40:12;;;;;;;12.80;11.37;;;;;;;20.80;100.00;63031.13;5072199;28;20211;-76
2022/07/31 00:42:40;;;;;;;14.23;11.50;;;;;;;20.91;100.00;63037.84;5072319;28;20216;-76
2022/07/31 00:45:08;;;;;;;12.60;11.17;;;;;;;20.92;100.00;63041.53;5072487;28;20239;-77
2022/07/31 00:47:35;;;;;;;13.07;11.50;;;;;;;20.63;100.00;63007.56;5072449;28;20663;-76
2022/07/31 00:50:03;;;;;;;12.10;10.90;;;;;;;20.65;100.00;63009.72;5072226;28;20585;-75
2022/07/31 00:52:31;;;;;;;14.53;11.43;;;;;;;20.53;100.00;62999.34;5071684;28;20639;-76
2022/07/31 00:54:59;;;;;;;12.57;11.07;;;;;;;20.51;100.00;62996.63;5074194;28;20196;-77
2022/07/31 00:57:25;;;;;;;12.10;10.87;;;;;;;20.41;100.00;62983.75;5072253;28;20212;-78
2022/07/31 00:59:52;;;;;;;14.63;12.17;;;;;;;20.20;100.00;62963.66;5073053;28;20192;-77
2022/07/31 01:02:19;;;;;;;14.90;12.20;;;;;;;20.39;100.00;62986.22;5072256;28;20207;-76
2022/07/31 01:04:46;;;;;;;13.87;12.03;;;;;;;20.37;100.00;62978.91;5073553;28;20228;-75
2022/07/31 01:07:15;;;;;;;14.87;12.23;;;;;;;19.90;100.00;62928.63;5082726;28;20202;-77
2022/07/31 01:09:44;;;;;;;14.50;12.17;;;;;;;20.36;100.00;62975.22;5091205;28;20199;-75
2022/07/31 01:12:16;;;;;;;12.80;11.50;;;;;;;20.49;100.00;62992.41;5083981;28;20561;-76
2022/07/31 01:14:48;;;;;;;13.43;12.03;;;;;;;20.52;100.00;62995.66;5082354;28;20564;-76
2022/07/31 01:17:16;;;;;;;13.77;11.57;;;;;;;20.37;100.00;62984.63;5071390;28;20212;-77
2022/07/31 01:19:46;;;;;;;14.77;11.83;;;;;;;20.45;100.00;62988.09;5071304;28;20215;-76
2022/07/31 01:22:34;;;;;;;13.23;11.33;;;;;;;19.80;100.00;62917.81;5073935;28;20196;-74
2022/07/31 01:25:09;;;;;;;13.13;11.73;;;;;;;20.18;100.00;62964.06;5078621;28;20254;-75
2022/07/31 01:27:52;;;;;;;15.57;13.30;;;;;;;20.43;100.00;62985.94;5082276;28;20199;-75
2022/07/31 01:30:25;;;;;;;16.13;13.10;;;;;;;20.36;100.00;62978.38;5094807;28;20288;-76
2022/07/31 01:32:56;;;;;;;15.67;12.83;;;;;;;20.31;100.00;62975.00;5075732;28;20607;-76
2022/07/31 01:35:28;;;;;;;14.70;12.27;;;;;;;20.17;100.00;62960.94;5075957;28;20256;-77
2022/07/31 01:38:01;;;;;;;15.07;12.77;;;;;;;19.71;100.00;62908.06;5075364;28;20727;-76
2022/07/31 01:40:34;;;;;;;14.17;12.40;;;;;;;18.39;100.00;62772.22;5075526;28;20208;-76
2022/07/31 01:43:06;;;;;;;12.57;10.30;;;;;;;20.31;100.00;62975.53;5086610;28;20196;-78
2022/07/31 01:45:38;;;;;;;11.47;10.23;;;;;;;20.33;100.00;62974.56;5074635;28;20227;-76
2022/07/31 01:48:07;;;;;;;13.17;10.53;;;;;;;20.22;100.00;62963.22;5082044;28;20630;-77
2022/07/31 01:50:37;;;;;;;12.20;9.77;;;;;;;20.16;100.00;62956.72;5084973;28;20803;-75
2022/07/31 01:53:05;;;;;;;11.53;9.43;;;;;;;19.82;100.00;62919.97;5077336;28;20223;-78
2022/07/31 01:55:34;;;;;;;12.07;9.83;;;;;;;20.13;100.00;62954.00;5074268;28;20235;-77
2022/07/31 01:58:02;;;;;;;13.80;9.47;;;;;;;20.06;100.00;62943.84;5090774;28;20204;-77
2022/07/31 02:00:29;;;;;;;11.90;9.40;;;;;;;20.03;100.00;62942.66;5080851;28;20207;-77
2022/07/31 02:02:59;;;;;;;13.40;9.70;;;;;;;20.23;100.00;62966.88;5082914;28;20192;-75
2022/07/31 02:05:29;;;;;;;12.60;10.50;;;;;;;20.31;100.00;62972.41;5093773;28;20770;-78
2022/07/31 02:07:57;;;;;;;12.27;9.97;;;;;;;20.18;100.00;62961.47;5089531;28;20200;-76
2022/07/31 02:10:25;;;;;;;10.67;9.43;;;;;;;19.20;100.00;62859.19;5074307;28;20214;-77
2022/07/31 02:12:54;;;;;;;11.47;9.50;;;;;;;20.20;100.00;62966.25;5074322;28;20192;-77
2022/07/31 02:15:24;;;;;;;11.37;9.77;;;;;;;20.26;100.00;62967.56;5074569;28;20211;-76
2022/07/31 02:17:53;;;;;;;9.27;8.33;;;;;;;19.98;100.00;62937.25;5074152;28;20195;-76
2022/07/31 02:20:22;;;;;;;11.27;8.90;;;;;;;19.85;100.00;62923.75;5077644;28;20199;-77
2022/07/31 02:22:49;;;;;;;9.33;8.43;;;;;;;19.94;100.00;62932.94;5083041;28;20216;-77
2022/07/31 02:25:17;;;;;;;11.43;9.03;;;;;;;19.90;100.00;62933.78;5074557;28;20627;-76
2022/07/31 02:27:46;;;;;;;13.10;9.20;;;;;;;19.81;100.00;62914.25;5075325;28;20247;-77
2022/07/31 02:30:14;;;;;;;11.60;9.20;;;;;;;19.66;100.00;62902.69;5078214;28;20595;-76
2022/07/31 02:32:45;;;;;;;12.10;9.70;;;;;;;19.79;100.00;62916.72;5087274;28;20597;-76
2022/07/31 02:35:16;;;;;;;11.90;9.73;;;;;;;19.83;100.00;62921.59;5074355;28;20207;-77
2022/07/31 02:37:48;;;;;;;11.77;9.97;;;;;;;20.01;100.00;62940.50;5073836;28;20195;-77
2022/07/31 02:40:17;;;;;;;13.20;10.93;;;;;;;19.33;100.00;62870.13;5073898;28;20200;-76
2022/07/31 02:42:46;;;;;;;13.27;10.90;;;;;;;19.50;100.00;62885.38;5074518;28;20243;-75
2022/07/31 02:45:14;;;;;;;12.90;10.67;;;;;;;20.05;100.00;62944.81;5087916;28;20223;-76
2022/07/31 02:47:41;;;;;;;13.50;9.67;;;;;;;20.02;100.00;62944.19;5077150;28;20196;-76
2022/07/31 02:50:09;;;;;;;13.27;9.30;;;;;;;19.92;100.00;62933.38;5073583;28;20249;-78
2022/07/31 02:52:37;;;;;;;11.20;9.77;;;;;;;19.95;100.00;62937.13;5073504;28;20712;-77
2022/07/31 02:55:07;;;;;;;11.83;10.00;;;;;;;20.02;100.00;62939.00;5073705;28;20204;-77
2022/07/31 02:57:34;;;;;;;11.03;9.50;;;;;;;19.93;100.00;62934.97;5073827;28;20200;-76
2022/07/31 03:00:02;;;;;;;10.83;9.57;;;;;;;19.86;100.00;62919.13;5074389;28;20208;-77
2022/07/31 03:02:29;;;;;;;11.70;10.03;;;;;;;18.85;100.00;62813.09;5073572;28;20330;-76
2022/07/31 03:04:56;;;;;;;13.20;10.23;;;;;;;19.64;100.00;62903.09;5086718;28;20224;-77
2022/07/31 03:07:23;;;;;;;14.63;10.43;;;;;;;19.83;100.00;62921.59;5073405;28;20655;-76
2022/07/31 03:09:51;;;;;;;11.83;10.63;;;;;;;19.76;100.00;62913.47;5073006;28;20586;-78
2022/07/31 03:12:20;;;;;;;13.27;11.93;;;;;;;19.73;100.00;62907.66;5072955;28;20739;-76
2022/07/31 03:14:47;;;;;;;11.90;10.60;;;;;;;19.77;100.00;62920.28;5073084;28;20223;-77
2022/07/31 03:17:15;;;;;;;17.67;13.60;;;;;;;18.94;100.00;62831.09;5073063;28;20207;-77
2022/07/31 03:19:42;;;;;;;16.63;14.77;;;;;;;19.70;100.00;62909.59;5072751;28;20656;-78
2022/07/31 03:22:09;;;;;;;23.37;16.40;;;;;;;19.70;100.00;62907.00;5086299;28;20207;-77
2022/07/31 03:24:37;;;;;;;18.67;14.83;;;;;;;19.52;100.00;62890.66;5066621;28;20218;-77
2022/07/31 03:27:04;;;;;;;19.50;14.73;;;;;;;19.63;100.00;62899.41;5092320;28;20195;-76
2022/07/31 03:29:39;;;;;;;18.53;15.63;;;;;;;19.65;100.00;62899.00;5092110;28;20308;-76
2022/07/31 03:32:07;;;;;;;21.97;14.27;;;;;;;19.60;100.00;62898.78;5078610;28;20200;-76
2022/07/31 03:34:34;;;;;;;18.83;13.87;;;;;;;19.57;100.00;62893.47;5073979;28;20193;-77
2022/07/31 03:37:00;;;;;;;17.10;14.40;;;;;;;19.82;100.00;62925.13;5072381;28;20204;-76
2022/07/31 03:39:27;;;;;;;19.20;13.00;;;;;;;19.99;100.00;62940.91;5072463;28;20655;-76
2022/07/31 03:41:56;;;;;;;14.67;12.90;;;;;;;19.97;100.00;62938.75;5072425;28;20195;-76
2022/07/31 03:44:24;;;;;;;17.50;14.00;;;;;;;19.68;100.00;62904.84;5071664;28;20250;-77
2022/07/31 03:46:53;;;;;;;19.90;13.93;;;;;;;19.73;100.00;62910.22;5072424;28;20231;-75
2022/07/31 03:49:21;;;;;;;15.13;13.57;;;;;;;19.68;100.00;62905.38;5073133;28;20226;-78
2022/07/31 03:51:48;;;;;;;16.00;14.27;;;;;;;19.72;100.00;62912.28;5072583;28;20196;-76
2022/07/31 03:54:15;;;;;;;21.87;15.47;;;;;;;19.00;100.00;62832.41;5072292;28;20203;-77
2022/07/31 03:56:46;;;;;;;19.00;15.27;;;;;;;19.74;100.00;62916.50;5089859;28;20196;-77
2022/07/31 03:59:14;;;;;;;19.07;13.63;;;;;;;18.67;100.00;62796.25;5085743;28;20196;-77
2022/07/31 04:01:43;;;;;;;15.47;13.87;;;;;;;18.32;100.00;62761.56;5085337;28;20199;-78
2022/07/31 04:04:13;;;;;;;15.67;13.67;;;;;;;18.72;100.00;62802.19;5066771;28;20672;-76
2022/07/31 04:06:40;;;;;;;15.73;14.10;;;;;;;19.13;100.00;62851.63;5080197;28;20274;-75
2022/07/31 04:09:07;;;;;;;20.07;14.67;;;;;;;19.36;100.00;62871.31;5076530;28;20195;-77
2022/07/31 04:11:34;;;;;;;15.93;14.23;;;;;;;19.38;100.00;62876.06;5091570;28;20203;-76
2022/07/31 04:14:01;;;;;;;17.97;14.63;;;;;;;19.52;100.00;62888.06;5090853;28;20583;-77
2022/07/31 04:16:28;;;;;;;16.30;14.60;;;;;;;19.52;100.00;62892.72;5091735;28;20203;-77
2022/07/31 04:18:56;;;;;;;16.13;13.77;;;;;;;19.59;100.00;62892.50;5072890;28;20250;-76
2022/07/31 04:21:25;;;;;;;17.20;14.07;;;;;;;19.25;100.00;62862.03;5071966;28;20201;-77
2022/07/31 04:23:54;;;;;;;19.03;15.43;;;;;;;18.64;100.00;62790.97;5071945;28;20589;-76
2022/07/31 04:26:21;;;;;;;16.70;14.83;;;;;;;19.12;100.00;62844.84;5072326;28;20224;-77
2022/07/31 04:28:48;;;;;;;20.20;16.33;;;;;;;19.35;100.00;62870.25;5072855;28;20650;-77
2022/07/31 04:31:15;;;;;;;20.63;15.33;;;;;;;19.61;100.00;62897.25;5072367;28;20330;-77
2022/07/31 04:33:43;;;;;;;18.70;15.03;;;;;;;19.40;100.00;62872.53;5059684;28;20188;-77
2022/07/31 04:36:10;;;;;;;18.13;15.40;;;;;;;18.83;100.00;62816.66;5072841;28;20660;-76
2022/07/31 04:38:38;;;;;;;18.97;15.13;;;;;;;19.43;100.00;62877.81;5072095;28;20575;-78
2022/07/31 04:41:05;;;;;;;18.90;15.23;;;;;;;19.65;100.00;62902.13;5073091;28;20563;-77
2022/07/31 04:43:33;;;;;;;18.10;15.30;;;;;;;19.24;100.00;62858.34;5072364;28;20572;-75
2022/07/31 04:46:00;;;;;;;20.30;15.63;;;;;;;19.80;100.00;62917.81;5073199;28;20284;-77
2022/07/31 04:48:28;;;;;;;19.93;15.63;;;;;;;19.98;100.00;62937.25;5072220;28;20579;-76
2022/07/31 04:50:56;;;;;;;19.57;14.33;;;;;;;20.27;100.00;62968.63;5071587;28;20200;-76
2022/07/31 04:53:23;;;;;;;19.73;15.83;;;;;;;20.47;100.00;62992.28;5071818;28;20239;-76
2022/07/31 04:58:33;;;;;;;17.10;13.83;;;;;;;20.64;100.00;63008.66;5072313;28;20262;-76
2022/07/31 05:01:01;;;;;;;17.10;14.40;;;;;;;20.87;100.00;63033.53;5079124;28;20249;-76
2022/07/31 05:03:29;;;;;;;16.57;13.77;;;;;;;20.92;100.00;63038.94;5092041;28;20208;-76
2022/07/31 05:05:57;;;;;;;16.10;13.73;;;;;;;20.89;100.00;63035.13;5071453;28;20234;-77
2022/07/31 05:08:24;;;;;;;17.40;12.90;;;;;;;20.10;100.00;62955.41;5083670;28;20234;-74
2022/07/31 05:13:37;;;;;;;14.73;13.13;;;;;;;20.79;100.00;63024.88;5071475;28;20250;-75
2022/07/31 05:16:04;;;;;;;13.40;11.97;;;;;;;20.67;100.00;63011.88;5071050;28;20200;-76
2022/07/31 05:18:32;;;;;;;12.10;10.83;;;;;;;20.76;100.00;63026.81;5071260;28;20204;-75
2022/07/31 05:21:00;;;;;;;12.80;11.03;;;;;;;20.79;100.00;63024.31;5071302;28;20672;-75
2022/07/31 05:23:27;;;;;;;13.00;11.50;;;;;;;20.51;100.00;62994.56;5073772;28;20215;-77
2022/07/31 05:25:55;;;;;;;13.27;11.23;;;;;;;20.79;100.00;63024.31;5078902;28;20223;-76
2022/07/31 05:28:23;;;;;;;14.17;11.37;;;;;;;20.94;100.00;63041.09;5077497;28;20204;-75
2022/07/31 05:30:52;;;;;;;12.07;10.77;;;;;;;20.92;100.00;63038.94;5082436;28;20690;-76
2022/07/31 05:33:20;;;;;;;13.87;11.77;;;;;;;21.06;100.00;63050.44;5074062;28;20204;-78
2022/07/31 05:35:47;;;;;;;12.47;11.23;;;;;;;21.37;100.00;63091.75;5080924;28;20212;-77
2022/07/31 05:38:14;;;;;;;14.43;10.27;;;;;;;21.20;100.00;63068.16;5071031;28;20602;-77
2022/07/31 05:40:41;;;;;;;14.40;10.10;;;;;;;21.15;100.00;63062.75;5071629;28;20204;-75
2022/07/31 05:43:10;;;;;;;11.13;10.00;;;;;;;21.29;100.00;63077.91;5082850;28;20204;-77
2022/07/31 05:45:37;;;;;;;10.53;9.47;;;;;;;21.26;100.00;63075.22;5073391;28;20192;-76
2022/07/31 05:48:06;;;;;;;10.50;9.50;;;;;;;20.73;100.00;63020.97;5070931;28;20196;-76
2022/07/31 05:50:33;;;;;;;10.30;9.37;;;;;;;21.42;100.00;63091.97;5083853;28;20613;-76
2022/07/31 05:53:00;;;;;;;10.90;9.77;;;;;;;21.62;100.00;63113.63;5070855;28;20333;-76
2022/07/31 05:55:27;;;;;;;13.43;9.43;;;;;;;21.71;100.00;63125.97;5070715;28;20196;-77
2022/07/31 05:57:54;;;;;;;11.07;9.97;;;;;;;21.76;100.00;63123.59;5070930;28;20200;-75
2022/07/31 06:00:23;;;;;;;12.27;9.47;;;;;;;21.90;100.00;63143.41;5070833;28;20207;-75
2022/07/31 06:02:50;;;;;;;11.77;8.90;;;;;;;22.19;100.00;63172.78;5075719;28;20257;-77
2022/07/31 06:05:18;;;;;;;9.53;8.57;;;;;;;21.85;100.00;63146.34;5070875;28;20207;-76
2022/07/31 06:07:45;;;;;;;10.00;8.60;;;;;;;22.22;100.00;63178.63;5071900;28;20236;-76
2022/07/31 06:10:12;;;;;;;9.60;8.70;;;;;;;22.15;100.00;63176.25;5082563;28;20221;-76
2022/07/31 06:12:40;;;;;;;9.17;8.33;;;;;;;21.61;100.00;63112.56;5092414;28;20211;-75
2022/07/31 06:15:08;;;;;;;8.93;8.03;;;;;;;22.44;100.00;63202.44;5074236;28;20651;-78
2022/07/31 06:17:38;;;;;;;10.23;8.93;;;;;;;22.59;100.00;63216.13;5074304;28;20204;-75
2022/07/31 06:20:08;;;;;;;12.30;8.40;;;;;;;22.81;100.00;63241.47;5074075;28;20204;-77
2022/07/31 06:22:35;;;;;;;9.23;8.33;;;;;;;22.84;100.00;63247.34;5073975;28;20253;-76
2022/07/31 06:25:03;;;;;;;12.03;8.73;;;;;;;22.82;100.00;63242.56;5074100;28;20196;-76
2022/07/31 06:27:30;;;;;;;9.27;8.37;;;;;;;22.58;100.00;63212.44;5074800;28;20228;-77
2022/07/31 06:29:58;;;;;;;10.07;8.80;;;;;;;23.35;100.00;63300.03;5073802;28;20694;-75
2022/07/31 06:32:25;;;;;;;12.43;9.00;;;;;;;23.53;100.00;63314.34;5066871;28;20196;-77
2022/07/31 06:34:54;;;;;;;10.53;9.20;;;;;;;23.91;100.00;63360.78;5073828;28;20215;-77
2022/07/31 06:37:21;;;;;;;11.07;8.53;;;;;;;24.03;100.00;63373.81;5081996;28;20206;-74
2022/07/31 06:39:49;;;;;;;10.77;9.07;;;;;;;24.12;100.00;63383.59;5087071;28;20655;-75
2022/07/31 06:42:18;;;;;;;10.30;9.23;;;;;;;24.04;100.00;63374.38;5062017;28;20223;-76
2022/07/31 06:44:45;;;;;;;11.40;9.60;;;;;;;24.09;100.00;63380.31;5073677;28;20279;-74
2022/07/31 06:47:13;;;;;;;11.13;9.30;;;;;;;24.18;100.00;63389.56;5073945;28;20231;-75
2022/07/31 06:49:40;;;;;;;11.00;9.90;;;;;;;23.11;100.00;63271.94;5076293;28;20187;-76
2022/07/31 06:52:09;;;;;;;11.83;10.20;;;;;;;23.86;100.00;63357.97;5073955;28;20287;-76
2022/07/31 06:54:37;;;;;;;10.83;9.73;;;;;;;24.14;100.00;63380.56;5074678;28;20211;-76
2022/07/31 06:57:04;;;;;;;10.17;9.07;;;;;;;24.63;100.00;63437.84;5073546;28;20646;-76
2022/07/31 06:59:31;;;;;;;12.13;10.07;;;;;;;24.23;100.00;63389.75;5079428;28;20643;-75
2022/07/31 07:01:59;;;;;;;10.40;9.23;;;;;;;24.87;100.00;63463.94;5081003;28;20651;-76
2022/07/31 07:04:26;;;;;;;11.40;10.00;;;;;;;24.86;100.00;63462.81;5059976;28;20207;-75
2022/07/31 07:06:55;;;;;;;12.47;10.67;;;;;;;24.44;100.00;63417.75;5073438;28;20697;-79
2022/07/31 07:09:24;;;;;;;12.27;10.97;;;;;;;24.28;100.00;63395.75;5073636;28;20257;-76
2022/07/31 07:11:51;;;;;;;13.97;11.97;;;;;;;23.86;100.00;63357.97;5073278;28;20212;-76
2022/07/31 07:14:18;;;;;;;14.13;12.03;;;;;;;23.26;100.00;63293.41;5086469;28;20196;-74
2022/07/31 07:16:45;;;;;;;14.73;13.20;;;;;;;23.06;100.00;63268.59;5092793;28;20195;-77
2022/07/31 07:19:13;;;;;;;15.37;12.50;;;;;;;22.98;100.00;63259.91;5091316;28;20202;-74
2022/07/31 07:21:41;;;;;;;16.67;13.17;;;;;;;22.95;100.00;63256.66;5092825;28;20195;-78
2022/07/31 07:24:08;;;;;;;14.30;12.40;;;;;;;23.68;100.00;63335.84;5091769;28;20215;-76
2022/07/31 07:26:37;;;;;;;15.30;12.30;;;;;;;24.26;100.00;63404.00;5092455;28;20595;-75
2022/07/31 07:29:05;;;;;;;15.17;11.60;;;;;;;24.52;100.00;63431.13;5086585;28;20204;-76
2022/07/31 07:31:33;;;;;;;16.40;12.60;;;;;;;24.93;100.00;63470.97;5085709;28;20227;-76
2022/07/31 07:34:01;;;;;;;12.50;11.20;;;;;;;24.94;100.00;63471.50;5092040;28;20234;-75
2022/07/31 07:36:28;;;;;;;11.27;10.17;;;;;;;25.08;100.00;63487.25;5083027;28;20674;-78
2022/07/31 07:38:55;;;;;;;12.67;10.50;;;;;;;25.29;100.00;63509.53;5088274;28;20221;-77
2022/07/31 07:41:23;;;;;;;11.03;9.80;;;;;;;25.33;100.00;63513.88;5092394;28;20629;-79
2022/07/31 07:43:52;;;;;;;11.87;10.63;;;;;;;25.92;100.00;63578.00;5079515;28;20244;-75
2022/07/31 07:46:19;;;;;;;12.60;11.30;;;;;;;26.37;100.00;63623.22;5076198;28;20245;-76
2022/07/31 07:48:46;;;;;;;11.83;10.63;;;;;;;25.32;100.00;63512.78;5073024;28;20205;-76
2022/07/31 07:51:13;;;;;;;14.27;12.13;;;;;;;26.45;100.00;63635.06;5072758;28;20233;-76
2022/07/31 07:53:41;;;;;;;15.87;12.97;;;;;;;26.87;100.00;63685.44;5070887;28;20207;-76
2022/07/31 07:56:08;;;;;;;15.10;13.33;;;;;;;25.92;100.00;63578.00;5072065;28;20642;-75
2022/07/31 07:58:36;;;;;;;15.47;13.23;;;;;;;26.26;100.00;63617.03;5072759;28;20566;-77
2022/07/31 08:01:06;;;;;;;14.10;12.37;;;;;;;26.61;100.00;63652.47;5072131;28;20199;-75
2022/07/31 08:03:33;;;;;;;16.83;13.70;;;;;;;26.56;100.00;63646.50;5085330;28;20204;-77
2022/07/31 08:06:01;;;;;;;15.27;13.33;;;;;;;25.61;100.00;63544.31;5072162;28;20203;-77
2022/07/31 08:08:28;;;;;;;17.33;13.63;;;;;;;25.30;100.00;63510.59;5072155;28;20200;-76
2022/07/31 08:10:56;;;;;;;19.63;14.07;;;;;;;25.26;100.00;63503.09;5071961;28;20572;-73
2022/07/31 08:13:24;;;;;;;15.20;13.40;;;;;;;24.78;100.00;63451.53;5072741;28;20200;-77
2022/07/31 08:15:52;;;;;;;19.37;16.90;;;;;;;24.95;100.00;63467.94;5072031;28;20689;-77
2022/07/31 08:18:20;;;;;;;17.37;12.90;;;;;;;24.67;100.00;63442.19;5085027;28;20211;-74
2022/07/31 08:20:47;;;;;;;14.97;12.30;;;;;;;24.47;100.00;63420.47;5071800;28;20299;-75
2022/07/31 08:23:14;;;;;;;14.33;11.90;;;;;;;24.80;100.00;63453.72;5090765;28;20579;-77
2022/07/31 08:25:42;;;;;;;15.00;10.73;;;;;;;24.95;100.00;63472.63;5091229;28;20200;-76
2022/07/31 08:28:09;;;;;;;14.80;11.63;;;;;;;24.69;100.00;63444.38;5090962;28;20589;-76
2022/07/31 08:30:36;;;;;;;15.07;10.53;;;;;;;24.40;100.00;63412.88;5090766;28;20227;-77
2022/07/31 08:33:03;;;;;;;14.80;10.53;;;;;;;24.64;100.00;63436.31;5091342;28;20191;-76
2022/07/31 08:35:32;;;;;;;12.40;9.43;;;;;;;24.65;100.00;63440.03;5091340;28;20200;-77
2022/07/31 08:37:59;;;;;;;15.70;9.17;;;;;;;23.63;100.00;63329.84;5059273;28;20243;-77
2022/07/31 08:40:28;;;;;;;17.93;10.30;;;;;;;24.77;100.00;63453.06;5084829;28;20200;-76
2022/07/31 08:42:56;;;;;;;11.30;9.80;;;;;;;25.36;100.00;63516.56;5092029;28;20203;-76
2022/07/31 08:45:24;;;;;;;12.83;10.23;;;;;;;25.43;100.00;63524.75;5090675;28;20279;-76
2022/07/31 08:47:53;;;;;;;14.37;9.80;;;;;;;25.78;100.00;63562.22;5079727;28;20227;-78
2022/07/31 08:50:27;;;;;;;12.03;9.77;;;;;;;26.21;100.00;63608.44;5090657;28;20194;-75
2022/07/31 08:53:04;;;;;;;11.97;8.77;;;;;;;25.92;100.00;63578.00;5091194;28;20195;-76
2022/07/31 08:55:32;;;;;;;12.80;9.60;;;;;;;25.68;100.00;63551.38;5090430;28;20206;-76
2022/07/31 08:58:00;;;;;;;11.67;9.03;;;;;;;25.69;100.00;63553.00;5096001;28;20237;-75
2022/07/31 09:00:29;;;;;;;10.20;8.60;;;;;;;25.26;100.00;63506.25;5077118;28;20208;-79
2022/07/31 09:02:56;;;;;;;9.80;8.80;;;;;;;26.25;100.00;63610.72;5071798;28;20200;-76
2022/07/31 09:05:23;;;;;;;10.13;8.27;;;;;;;26.67;100.00;63661.06;5071616;28;20196;-77
2022/07/31 09:07:51;;;;;;;9.50;8.50;;;;;;;26.87;100.00;63680.22;5071287;28;20232;-75
2022/07/31 09:10:25;;;;;;;12.40;8.80;;;;;;;27.25;100.00;63721.00;5071601;28;20561;-76
2022/07/31 09:12:53;;;;;;;9.50;8.47;;;;;;;27.14;100.00;63709.59;5071187;28;20655;-75
2022/07/31 09:15:23;;;;;;;9.17;8.17;;;;;;;27.39;100.00;63736.81;5070403;28;20669;-76
2022/07/31 09:17:52;;;;;;;9.70;8.43;;;;;;;27.13;100.00;63708.50;5084378;28;20265;-77
2022/07/31 09:20:20;;;;;;;9.87;8.30;;;;;;;27.07;100.00;63701.44;5080283;28;20650;-75
2022/07/31 09:22:52;;;;;;;9.03;8.10;;;;;;;27.55;100.00;63756.84;5087850;28;20285;-76
2022/07/31 09:25:20;;;;;;;9.90;9.00;;;;;;;27.68;100.00;63764.66;5082175;28;20291;-77
2022/07/31 09:27:51;;;;;;;10.37;9.07;;;;;;;27.20;100.00;63715.56;5073181;28;20763;-77
2022/07/31 09:30:18;;;;;;;13.67;9.80;;;;;;;26.85;100.00;63675.44;5071698;28;20224;-75
2022/07/31 09:32:45;;;;;;;10.13;9.13;;;;;;;26.28;100.00;63616.59;5071717;28;20199;-77
2022/07/31 09:35:14;;;;;;;11.80;9.73;;;;;;;26.42;100.00;63631.81;5071632;28;20265;-75
2022/07/31 09:37:41;;;;;;;10.30;9.30;;;;;;;25.61;100.00;63541.72;5071494;28;20679;-76
2022/07/31 09:40:09;;;;;;;11.33;9.10;;;;;;;26.10;100.00;63593.88;5074084;28;20206;-76
2022/07/31 09:42:44;;;;;;;14.10;9.73;;;;;;;26.00;100.00;63586.13;5072599;28;20204;-78
2022/07/31 09:45:21;;;;;;;13.13;10.10;;;;;;;25.98;100.00;63579.28;5083374;28;20213;-76
2022/07/31 09:48:02;;;;;;;13.53;10.67;;;;;;;25.82;100.00;63561.34;5092255;28;20232;-76
2022/07/31 09:50:29;;;;;;;12.70;10.80;;;;;;;25.83;100.00;63563.00;5086052;28;20251;-78
2022/07/31 09:53:00;;;;;;;13.03;11.57;;;;;;;25.86;100.00;63568.84;5094074;28;20197;-78
2022/07/31 09:55:28;;;;;;;12.93;11.53;;;;;;;25.78;100.00;63562.78;5094696;28;20279;-76
2022/07/31 09:57:59;;;;;;;12.63;11.30;;;;;;;25.45;100.00;63526.94;5094626;28;20197;-76
2022/07/31 10:00:28;;;;;;;15.73;12.80;;;;;;;24.91;100.00;63474.00;5078581;28;20659;-76
2022/07/31 10:02:57;;;;;;;13.47;11.63;;;;;;;25.69;100.00;63553.00;5074408;28;20196;-78
2022/07/31 10:05:25;;;;;;;16.87;13.30;;;;;;;26.44;100.00;63633.44;5074704;28;20196;-76
2022/07/31 10:07:56;;;;;;;13.63;12.10;;;;;;;26.64;100.00;63655.19;5074584;28;20692;-74
2022/07/31 10:10:26;;;;;;;14.13;12.37;;;;;;;27.05;100.00;63694.56;5074787;28;20207;-76
2022/07/31 10:12:58;;;;;;;15.97;13.20;;;;;;;26.82;100.00;63674.78;5074954;28;20207;-77
2022/07/31 10:15:28;;;;;;;15.80;13.47;;;;;;;25.90;100.00;63575.25;5061302;28;20691;-76
2022/07/31 10:17:56;;;;;;;14.83;13.33;;;;;;;26.24;100.00;63611.72;5073940;28;20204;-77
2022/07/31 10:20:24;;;;;;;15.60;14.00;;;;;;;25.98;100.00;63583.44;5074023;28;20636;-76
2022/07/31 10:22:56;;;;;;;15.97;13.77;;;;;;;26.12;100.00;63598.66;5088137;28;20710;-76
2022/07/31 10:25:27;;;;;;;14.10;12.70;;;;;;;25.89;100.00;63574.19;5093866;28;20661;-76
2022/07/31 10:27:56;;;;;;;15.63;13.97;;;;;;;26.01;100.00;63587.22;5093157;28;20232;-75
2022/07/31 10:30:24;;;;;;;14.77;13.23;;;;;;;25.89;100.00;63574.75;5093422;28;20233;-78
2022/07/31 10:32:57;;;;;;;16.50;14.77;;;;;;;25.88;100.00;63573.63;5090434;28;20200;-77
2022/07/31 10:35:25;;;;;;;13.27;11.93;;;;;;;25.71;100.00;63555.19;5080466;28;20584;-77
2022/07/31 10:37:59;;;;;;;12.43;11.23;;;;;;;26.09;100.00;63595.41;5075382;28;20204;-75
2022/07/31 10:40:35;;;;;;;12.83;10.17;;;;;;;26.48;100.00;63637.81;5075054;28;20206;-75
2022/07/31 10:43:17;;;;;;;11.47;10.27;;;;;;;26.77;100.00;63669.34;5074363;28;20249;-77
2022/07/31 10:45:49;;;;;;;12.50;9.67;;;;;;;26.89;100.00;63682.41;5074666;28;20284;-75
2022/07/31 10:48:18;;;;;;;11.07;9.93;;;;;;;27.40;100.00;63735.28;5073926;28;20282;-77
2022/07/31 10:50:46;;;;;;;11.07;10.03;;;;;;;27.53;100.00;63751.50;5074626;28;20223;-78
2022/07/31 10:53:15;;;;;;;13.63;10.17;;;;;;;27.85;100.00;63783.16;5074890;28;20199;-76
2022/07/31 10:55:43;;;;;;;10.80;9.70;;;;;;;27.83;100.00;63784.16;5081077;28;20224;-76
2022/07/31 10:58:11;;;;;;;11.00;9.83;;;;;;;28.15;100.00;63818.47;5083859;28;20203;-75
2022/07/31 11:00:39;;;;;;;11.40;10.20;;;;;;;28.19;100.00;63822.81;5075256;28;20200;-75
2022/07/31 11:03:18;;;;;;;11.13;10.03;;;;;;;28.34;100.00;63839.16;5073138;28;20196;-75
2022/07/31 11:05:56;;;;;;;10.60;9.43;;;;;;;27.79;100.00;63781.88;5079175;28;20194;-77
2022/07/31 11:08:23;;;;;;;9.93;8.93;;;;;;;27.47;100.00;63748.13;5093196;28;20704;-75
2022/07/31 11:10:52;;;;;;;10.53;9.53;;;;;;;27.49;100.00;63747.69;5093845;28;20226;-76
2022/07/31 11:13:20;;;;;;;10.13;9.20;;;;;;;27.56;100.00;63755.31;5092990;28;20546;-74
2022/07/31 11:15:48;;;;;;;9.43;8.53;;;;;;;27.57;100.00;63755.84;5092048;28;20216;-75
2022/07/31 11:18:17;;;;;;;9.27;8.40;;;;;;;27.24;100.00;63720.47;5090985;28;20195;-75
2022/07/31 11:20:46;;;;;;;13.73;8.80;;;;;;;27.70;100.00;63769.44;5082542;28;20195;-75
2022/07/31 11:23:16;;;;;;;10.07;8.90;;;;;;;28.18;100.00;63824.34;5093003;28;20226;-76